createdAt,value
2017-06-01T00:00:04.996Z,23.7
2017-06-01T00:02:05.190Z,23.8
2017-06-01T00:04:10.094Z,23.7
2017-06-01T00:06:04.832Z,23.7
2017-06-01T00:08:05.512Z,23.7
2017-06-01T00:10:05.405Z,23.7
2017-06-01T00:12:04.624Z,23.7
2017-06-01T00:14:05.324Z,23.7
2017-06-01T00:16:05.066Z,23.6
2017-06-01T00:18:04.952Z,23.7
2017-06-01T00:20:05.167Z,23.7
2017-06-01T00:22:05.758Z,23.7
2017-06-01T00:24:05.421Z,23.7
2017-06-01T00:26:04.659Z,23.6
2017-06-01T00:28:05.534Z,23.6
2017-06-01T00:30:05.206Z,23.6
2017-06-01T00:32:04.945Z,23.7
2017-06-01T00:34:04.838Z,23.7
2017-06-01T00:36:05.544Z,23.7
2017-06-01T00:38:05.416Z,23.6
2017-06-01T00:40:04.730Z,23.6
2017-06-01T00:42:05.431Z,23.6
2017-06-01T00:44:07.139Z,23.6
2017-06-01T00:46:04.795Z,23.6
2017-06-01T00:48:10.534Z,23.5
2017-06-01T00:50:12.830Z,23.5
2017-06-01T00:52:05.710Z,23.5
2017-06-01T00:54:05.462Z,23.5
2017-06-01T00:56:05.158Z,23.5
2017-06-01T00:58:05.004Z,23.5
2017-06-01T01:00:04.735Z,23.6
2017-06-01T01:02:05.412Z,23.5
2017-06-01T01:04:07.351Z,23.5
2017-06-01T01:06:05.619Z,23.5
2017-06-01T01:08:05.422Z,23.5
2017-06-01T01:10:05.224Z,23.5
2017-06-01T01:12:04.988Z,23.5
2017-06-01T01:14:04.676Z,23.6
2017-06-01T01:16:05.530Z,23.6
2017-06-01T01:18:05.416Z,23.6
2017-06-01T01:20:07.658Z,23.6
2017-06-01T01:22:07.875Z,23.6
2017-06-01T01:24:08.065Z,23.6
2017-06-01T01:26:04.985Z,23.6
2017-06-01T01:28:04.851Z,23.6
2017-06-01T01:30:05.639Z,23.6
2017-06-01T01:32:05.316Z,23.6
2017-06-01T01:34:05.056Z,23.6
2017-06-01T01:36:04.760Z,23.6
2017-06-01T01:38:07.956Z,23.6
2017-06-01T01:40:04.709Z,23.6
2017-06-01T01:42:05.741Z,23.6
2017-06-01T01:44:05.622Z,23.6
2017-06-01T01:46:05.534Z,23.6
2017-06-01T01:48:05.269Z,23.6
2017-06-01T01:50:04.995Z,23.6
2017-06-01T01:52:05.031Z,23.6
2017-06-01T01:54:04.748Z,23.6
2017-06-01T01:56:05.442Z,23.6
2017-06-01T01:58:05.648Z,23.6
2017-06-01T02:00:05.455Z,23.6
2017-06-01T02:02:05.157Z,23.6
2017-06-01T02:04:04.899Z,23.6
2017-06-01T02:06:05.636Z,23.5
2017-06-01T02:08:07.919Z,23.6
2017-06-01T02:10:04.788Z,23.5
2017-06-01T02:12:07.562Z,23.5
2017-06-01T02:14:07.924Z,23.5
2017-06-01T02:16:05.633Z,23.5
2017-06-01T02:18:05.499Z,23.5
2017-06-01T02:20:05.271Z,23.5
2017-06-01T02:22:05.107Z,23.4
2017-06-01T02:24:04.775Z,23.5
2017-06-01T02:26:05.466Z,23.4
2017-06-01T02:28:05.398Z,23.4
2017-06-01T02:30:05.212Z,23.4
2017-06-01T02:32:04.890Z,23.4
2017-06-01T02:34:04.639Z,23.4
2017-06-01T02:36:05.359Z,23.4
2017-06-01T02:38:05.106Z,23.4
2017-06-01T02:40:05.535Z,23.4
2017-06-01T02:42:05.267Z,23.4
2017-06-01T02:44:04.987Z,23.4
2017-06-01T02:46:04.851Z,23.4
2017-06-01T02:48:04.801Z,23.4
2017-06-01T02:50:05.510Z,23.4
2017-06-01T02:52:05.350Z,23.4
2017-06-01T02:54:07.590Z,23.4
2017-06-01T02:56:05.320Z,23.3
2017-06-01T02:58:07.688Z,23.4
2017-06-01T03:00:05.390Z,23.3
2017-06-01T03:02:05.245Z,23.3
2017-06-01T03:04:07.763Z,23.3
2017-06-01T03:06:05.446Z,23.3
2017-06-01T03:08:05.225Z,23.3
2017-06-01T03:10:08.006Z,23.3
2017-06-01T03:12:04.703Z,23.3
2017-06-01T03:14:05.401Z,23.3
2017-06-01T03:16:05.046Z,23.3
2017-06-01T03:18:05.250Z,23.3
2017-06-01T03:20:05.050Z,23.3
2017-06-01T03:22:05.419Z,23.3
2017-06-01T03:24:07.639Z,23.3
2017-06-01T03:26:05.341Z,23.3
2017-06-01T03:28:05.225Z,23.3
2017-06-01T03:30:04.969Z,23.3
2017-06-01T03:32:04.701Z,23.3
2017-06-01T03:34:05.612Z,23.3
2017-06-01T03:36:05.315Z,23.2
2017-06-01T03:38:05.011Z,23.2
2017-06-01T03:40:04.857Z,23.2
2017-06-01T03:42:08.074Z,23.2
2017-06-01T03:44:04.784Z,23.2
2017-06-01T03:46:05.898Z,23.2
2017-06-01T03:48:05.594Z,23.2
2017-06-01T03:50:05.466Z,23.2
2017-06-01T03:52:05.168Z,23.2
2017-06-01T03:54:04.929Z,23.1
2017-06-01T03:56:04.627Z,23.2
2017-06-01T03:58:05.503Z,23.1
2017-06-01T04:00:04.709Z,23
2017-06-01T04:02:05.420Z,23.1
2017-06-01T04:04:10.492Z,23
2017-06-01T04:06:04.919Z,23
2017-06-01T04:08:05.615Z,23
2017-06-01T04:10:05.560Z,23
2017-06-01T04:12:05.336Z,23
2017-06-01T04:14:05.058Z,23
2017-06-01T04:16:07.346Z,23.1
2017-06-01T04:18:04.746Z,23.1
2017-06-01T04:20:05.481Z,23.1
2017-06-01T04:22:09.921Z,23.1
2017-06-01T04:24:04.654Z,23.1
2017-06-01T04:26:05.388Z,23.1
2017-06-01T04:28:05.217Z,23.1
2017-06-01T04:30:04.983Z,23.2
2017-06-01T04:32:04.716Z,23.2
2017-06-01T04:34:10.182Z,23.2
2017-06-01T04:36:04.866Z,23.2
2017-06-01T04:38:05.757Z,23.2
2017-06-01T04:40:05.578Z,23.2
2017-06-01T04:42:04.802Z,23.2
2017-06-01T04:44:05.511Z,23.2
2017-06-01T04:46:11.074Z,23.2
2017-06-01T04:48:07.922Z,23.2
2017-06-01T04:50:04.875Z,23.3
2017-06-01T04:52:06.112Z,23.2
2017-06-01T04:54:07.477Z,23.2
2017-06-01T04:56:07.724Z,23.3
2017-06-01T04:58:05.112Z,23.3
2017-06-01T05:00:04.805Z,23.3
2017-06-01T05:02:05.578Z,23.3
2017-06-01T05:04:08.144Z,23.3
2017-06-01T05:06:09.913Z,23.3
2017-06-01T05:08:08.134Z,23.3
2017-06-01T05:10:05.481Z,23.3
2017-06-01T05:12:04.683Z,23.3
2017-06-01T05:14:05.360Z,23.3
2017-06-01T05:16:05.261Z,23.3
2017-06-01T05:18:05.245Z,23.3
2017-06-01T05:20:04.953Z,23.4
2017-06-01T05:22:04.714Z,23.4
2017-06-01T05:24:07.917Z,23.4
2017-06-01T05:26:08.512Z,23.4
2017-06-01T05:28:05.333Z,23.4
2017-06-01T05:30:05.074Z,23.4
2017-06-01T05:32:07.874Z,23.4
2017-06-01T05:34:05.987Z,23.4
2017-06-01T05:36:07.179Z,23.4
2017-06-01T05:38:04.909Z,23.4
2017-06-01T05:40:04.791Z,23.4
2017-06-01T05:42:05.509Z,23.5
2017-06-01T05:44:05.180Z,23.5
2017-06-01T05:46:07.434Z,23.5
2017-06-01T05:48:04.670Z,23.4
2017-06-01T05:50:04.890Z,23.5
2017-06-01T05:52:05.122Z,23.5
2017-06-01T05:54:04.811Z,23.6
2017-06-01T05:56:10.566Z,23.6
2017-06-01T05:58:05.683Z,23.6
2017-06-01T06:00:05.356Z,23.6
2017-06-01T06:02:05.029Z,23.6
2017-06-01T06:04:04.824Z,23.6
2017-06-01T06:06:08.071Z,23.7
2017-06-01T06:08:04.757Z,23.7
2017-06-01T06:10:08.137Z,23.7
2017-06-01T06:12:04.821Z,23.7
2017-06-01T06:14:05.891Z,23.7
2017-06-01T06:16:05.984Z,23.8
2017-06-01T06:18:04.840Z,23.8
2017-06-01T06:20:05.531Z,23.8
2017-06-01T06:22:05.934Z,23.8
2017-06-01T06:24:08.053Z,23.8
2017-06-01T06:26:12.333Z,23.9
2017-06-01T06:28:08.236Z,23.9
2017-06-01T06:30:05.081Z,23.9
2017-06-01T06:32:04.814Z,23.9
2017-06-01T06:34:05.696Z,23.9
2017-06-01T06:36:05.485Z,23.9
2017-06-01T06:38:05.182Z,23.9
2017-06-01T06:40:04.964Z,23.9
2017-06-01T06:42:04.656Z,23.9
2017-06-01T06:44:05.885Z,23.9
2017-06-01T06:46:04.858Z,23.9
2017-06-01T06:48:05.549Z,24
2017-06-01T06:50:05.113Z,24
2017-06-01T06:52:07.364Z,24.1
2017-06-01T06:54:05.060Z,24.1
2017-06-01T06:56:04.807Z,24
2017-06-01T06:58:05.666Z,24.1
2017-06-01T07:00:05.350Z,24.1
2017-06-01T07:02:05.505Z,24.1
2017-06-01T07:04:04.887Z,24.1
2017-06-01T07:06:08.113Z,24.2
2017-06-01T07:08:05.303Z,24.2
2017-06-01T07:10:07.569Z,24.2
2017-06-01T07:12:10.315Z,24.2
2017-06-01T07:14:05.059Z,24.2
2017-06-01T07:16:05.070Z,24.2
2017-06-01T07:18:05.222Z,24.3
2017-06-01T07:20:07.423Z,24.3
2017-06-01T07:22:05.476Z,24.3
2017-06-01T07:24:12.806Z,24.3
2017-06-01T07:26:05.596Z,24.3
2017-06-01T07:28:10.480Z,24.3
2017-06-01T07:30:07.703Z,24.4
2017-06-01T07:32:07.997Z,24.4
2017-06-01T07:34:04.823Z,24.3
2017-06-01T07:36:05.754Z,24.3
2017-06-01T07:38:05.433Z,24.3
2017-06-01T07:40:07.776Z,24.3
2017-06-01T07:42:06.477Z,24.3
2017-06-01T07:44:05.154Z,24.4
2017-06-01T07:46:05.045Z,24.5
2017-06-01T07:48:07.256Z,24.6
2017-06-01T07:50:04.966Z,24.5
2017-06-01T07:52:07.577Z,24.7
2017-06-01T07:54:07.850Z,24.7
2017-06-01T07:56:08.061Z,24.7
2017-06-01T07:58:10.734Z,24.8
2017-06-01T08:00:05.009Z,24.8
2017-06-01T08:02:07.494Z,24.9
2017-06-01T08:04:07.742Z,24.9
2017-06-01T08:06:18.224Z,24.9
2017-06-01T08:08:09.942Z,24.9
2017-06-01T08:10:05.389Z,25
2017-06-01T08:12:07.159Z,25
2017-06-01T08:14:07.406Z,25
2017-06-01T08:16:07.719Z,25.1
2017-06-01T08:18:04.666Z,25.1
2017-06-01T08:20:10.431Z,25.1
2017-06-01T08:22:07.520Z,25.1
2017-06-01T08:24:05.191Z,25.1
2017-06-01T08:26:09.958Z,25.2
2017-06-01T08:28:09.743Z,25.2
2017-06-01T08:30:05.412Z,25.2
2017-06-01T08:32:05.136Z,25.2
2017-06-01T08:34:04.915Z,25.3
2017-06-01T08:36:04.824Z,25.3
2017-06-01T08:38:05.525Z,25.3
2017-06-01T08:40:08.102Z,25.3
2017-06-01T08:42:04.819Z,25.3
2017-06-01T08:44:05.559Z,25.4
2017-06-01T08:46:07.968Z,25.4
2017-06-01T08:48:07.421Z,25.4
2017-06-01T08:50:04.624Z,25.4
2017-06-01T08:52:05.081Z,25.4
2017-06-01T08:54:07.325Z,25.5
2017-06-01T08:56:10.061Z,25.5
2017-06-01T08:58:05.349Z,25.6
2017-06-01T09:00:07.608Z,25.6
2017-06-01T09:02:04.921Z,25.6
2017-06-01T09:04:07.722Z,25.6
2017-06-01T09:06:04.977Z,25.6
2017-06-01T09:08:05.225Z,25.6
2017-06-01T09:10:05.120Z,25.6
2017-06-01T09:12:04.793Z,25.6
2017-06-01T09:14:05.068Z,25.6
2017-06-01T09:16:04.930Z,25.7
2017-06-01T09:18:04.873Z,25.7
2017-06-01T09:20:07.622Z,25.7
2017-06-01T09:22:06.722Z,25.7
2017-06-01T09:24:04.712Z,25.7
2017-06-01T09:26:10.412Z,25.8
2017-06-01T09:28:10.356Z,25.8
2017-06-01T09:30:05.110Z,25.8
2017-06-01T09:32:05.110Z,25.8
2017-06-01T09:34:04.811Z,25.8
2017-06-01T09:36:05.545Z,25.8
2017-06-01T09:38:04.753Z,25.8
2017-06-01T09:40:05.671Z,25.8
2017-06-01T09:42:05.387Z,25.8
2017-06-01T09:44:07.923Z,25.8
2017-06-01T09:46:08.160Z,25.8
2017-06-01T09:48:07.896Z,25.8
2017-06-01T09:50:04.682Z,25.8
2017-06-01T09:52:05.516Z,25.8
2017-06-01T09:54:05.294Z,25.8
2017-06-01T09:56:05.065Z,25.9
2017-06-01T09:58:04.896Z,25.8
2017-06-01T10:00:08.144Z,25.9
2017-06-01T10:02:04.919Z,25.9
2017-06-01T10:04:05.010Z,25.9
2017-06-01T10:06:05.326Z,25.8
2017-06-01T10:08:05.237Z,25.9
2017-06-01T10:10:05.344Z,25.8
2017-06-01T10:12:05.510Z,25.9
2017-06-01T10:14:05.648Z,25.9
2017-06-01T10:16:07.458Z,25.9
2017-06-01T10:18:04.884Z,25.9
2017-06-01T10:20:05.578Z,25.9
2017-06-01T10:22:06.292Z,25.9
2017-06-01T10:24:05.455Z,25.9
2017-06-01T10:26:04.696Z,25.9
2017-06-01T10:28:05.892Z,25.9
2017-06-01T10:30:10.343Z,25.9
2017-06-01T10:32:04.841Z,25.9
2017-06-01T10:34:05.772Z,25.9
2017-06-01T10:36:05.475Z,25.8
2017-06-01T10:38:05.131Z,25.9
2017-06-01T10:40:05.073Z,25.9
2017-06-01T10:42:04.739Z,25.8
2017-06-01T10:44:05.494Z,25.8
2017-06-01T10:46:05.232Z,25.8
2017-06-01T10:48:05.028Z,25.8
2017-06-01T10:50:07.266Z,25.8
2017-06-01T10:52:05.074Z,25.8
2017-06-01T10:54:04.776Z,25.8
2017-06-01T10:56:05.122Z,25.8
2017-06-01T10:58:04.982Z,25.8
2017-06-01T11:00:04.700Z,25.8
2017-06-01T11:02:10.261Z,25.8
2017-06-01T11:04:05.127Z,25.8
2017-06-01T11:06:05.334Z,25.8
2017-06-01T11:08:05.542Z,25.8
2017-06-01T11:10:05.267Z,25.8
2017-06-01T11:12:07.507Z,25.8
2017-06-01T11:14:07.281Z,25.8
2017-06-01T11:16:05.128Z,25.8
2017-06-01T11:18:05.303Z,25.8
2017-06-01T11:20:05.053Z,25.8
2017-06-01T11:22:05.113Z,25.8
2017-06-01T11:24:04.832Z,25.8
2017-06-01T11:26:04.845Z,25.8
2017-06-01T11:28:05.245Z,25.8
2017-06-01T11:30:07.789Z,25.8
2017-06-01T11:32:07.331Z,25.8
2017-06-01T11:34:05.476Z,25.8
2017-06-01T11:36:05.176Z,25.8
2017-06-01T11:38:05.660Z,25.8
2017-06-01T11:40:05.449Z,25.8
2017-06-01T11:42:07.916Z,25.8
2017-06-01T11:44:04.652Z,25.8
2017-06-01T11:46:05.122Z,25.8
2017-06-01T11:48:12.940Z,25.8
2017-06-01T11:50:05.031Z,25.8
2017-06-01T11:52:07.417Z,25.8
2017-06-01T11:54:05.324Z,25.8
2017-06-01T11:56:05.068Z,25.8
2017-06-01T11:58:05.016Z,25.8
2017-06-01T12:00:05.274Z,25.8
2017-06-01T12:02:05.241Z,25.8
2017-06-01T12:04:05.115Z,25.8
2017-06-01T12:06:04.950Z,25.8
2017-06-01T12:08:04.697Z,25.8
2017-06-01T12:10:05.610Z,25.8
2017-06-01T12:12:07.367Z,25.8
2017-06-01T12:14:05.159Z,25.8
2017-06-01T12:16:04.886Z,25.8
2017-06-01T12:18:04.785Z,25.8
2017-06-01T12:20:05.513Z,25.8
2017-06-01T12:22:07.938Z,25.8
2017-06-01T12:24:05.242Z,25.8
2017-06-01T12:26:05.529Z,25.8
2017-06-01T12:28:05.653Z,25.8
2017-06-01T12:30:05.403Z,25.8
2017-06-01T12:32:07.780Z,25.8
2017-06-01T12:34:05.591Z,25.8
2017-06-01T12:36:05.290Z,25.8
2017-06-01T12:38:05.378Z,25.8
2017-06-01T12:40:05.149Z,25.8
2017-06-01T12:42:10.117Z,25.7
2017-06-01T12:44:07.881Z,25.7
2017-06-01T12:46:04.784Z,25.8
2017-06-01T12:48:10.553Z,25.7
2017-06-01T12:50:05.318Z,25.8
2017-06-01T12:52:04.981Z,25.8
2017-06-01T12:54:05.411Z,25.8
2017-06-01T12:56:05.129Z,25.8
2017-06-01T12:58:04.894Z,25.8
2017-06-01T13:00:05.572Z,25.8
2017-06-01T13:02:05.295Z,25.8
2017-06-01T13:04:07.570Z,25.8
2017-06-01T13:06:05.269Z,25.8
2017-06-01T13:08:05.162Z,25.8
2017-06-01T13:10:05.330Z,25.7
2017-06-01T13:12:08.111Z,25.8
2017-06-01T13:14:07.345Z,25.8
2017-06-01T13:16:05.680Z,25.8
2017-06-01T13:18:05.593Z,25.8
2017-06-01T13:20:05.550Z,25.8
2017-06-01T13:22:05.347Z,25.7
2017-06-01T13:24:05.073Z,25.8
2017-06-01T13:26:04.822Z,25.7
2017-06-01T13:28:08.397Z,25.8
2017-06-01T13:30:05.110Z,25.7
2017-06-01T13:32:04.881Z,25.7
2017-06-01T13:34:04.840Z,25.8
2017-06-01T13:36:04.778Z,25.8
2017-06-01T13:38:07.439Z,25.8
2017-06-01T13:40:05.474Z,25.8
2017-06-01T13:42:05.361Z,25.8
2017-06-01T13:44:05.064Z,25.8
2017-06-01T13:46:04.743Z,25.8
2017-06-01T13:48:13.032Z,25.8
2017-06-01T13:50:04.807Z,25.8
2017-06-01T13:52:10.716Z,25.8
2017-06-01T13:54:07.965Z,25.8
2017-06-01T13:56:04.684Z,25.8
2017-06-01T13:58:05.668Z,25.8
2017-06-01T14:00:05.377Z,25.8
2017-06-01T14:02:05.072Z,25.8
2017-06-01T14:04:05.158Z,25.8
2017-06-01T14:06:05.088Z,25.8
2017-06-01T14:08:04.802Z,25.8
2017-06-01T14:10:05.113Z,25.8
2017-06-01T14:12:04.816Z,25.9
2017-06-01T14:14:05.437Z,25.8
2017-06-01T14:16:04.759Z,25.8
2017-06-01T14:18:04.642Z,25.8
2017-06-01T14:20:09.084Z,25.8
2017-06-01T14:22:05.226Z,25.8
2017-06-01T14:24:05.000Z,25.8
2017-06-01T14:26:04.751Z,25.8
2017-06-01T14:28:05.653Z,25.9
2017-06-01T14:30:05.535Z,25.9
2017-06-01T14:32:04.923Z,25.9
2017-06-01T14:34:05.349Z,25.9
2017-06-01T14:36:05.094Z,25.9
2017-06-01T14:38:04.880Z,25.9
2017-06-01T14:40:05.956Z,25.9
2017-06-01T14:42:04.650Z,25.9
2017-06-01T14:44:10.431Z,25.9
2017-06-01T14:46:07.888Z,26
2017-06-01T14:48:05.576Z,26
2017-06-01T14:50:10.354Z,26
2017-06-01T14:52:05.677Z,26
2017-06-01T14:54:05.388Z,26
2017-06-01T14:56:05.115Z,26
2017-06-01T14:58:05.135Z,26
2017-06-01T15:00:04.833Z,26
2017-06-01T15:02:05.298Z,26.1
2017-06-01T15:04:07.524Z,26.1
2017-06-01T15:06:05.490Z,26.1
2017-06-01T15:08:05.183Z,26.1
2017-06-01T15:10:05.087Z,26.1
2017-06-01T15:12:05.333Z,26.1
2017-06-01T15:14:06.125Z,26.1
2017-06-01T15:16:05.047Z,26.1
2017-06-01T15:18:05.098Z,26.1
2017-06-01T15:20:07.301Z,26.1
2017-06-01T15:22:05.026Z,26.1
2017-06-01T15:24:07.297Z,26.1
2017-06-01T15:26:05.068Z,26.1
2017-06-01T15:28:04.798Z,26.1
2017-06-01T15:30:13.036Z,26.1
2017-06-01T15:32:08.001Z,26.1
2017-06-01T15:34:05.046Z,26.1
2017-06-01T15:36:09.781Z,26.1
2017-06-01T15:38:09.036Z,26.1
2017-06-01T15:40:05.550Z,26.1
2017-06-01T15:42:04.708Z,26.1
2017-06-01T15:44:05.438Z,26.1
2017-06-01T15:46:05.230Z,26.1
2017-06-01T15:48:04.969Z,26.1
2017-06-01T15:50:04.724Z,26.1
2017-06-01T15:52:05.418Z,26.1
2017-06-01T15:54:05.187Z,26.1
2017-06-01T15:56:04.905Z,26.1
2017-06-01T15:58:05.576Z,26.1
2017-06-01T16:00:05.389Z,26.1
2017-06-01T16:02:07.680Z,26.1
2017-06-01T16:04:05.724Z,26
2017-06-01T16:06:05.587Z,26
2017-06-01T16:08:12.440Z,25.8
2017-06-01T16:10:10.300Z,25.8
2017-06-01T16:12:04.963Z,25.8
2017-06-01T16:14:07.858Z,25.8
2017-06-01T16:16:08.166Z,25.8
2017-06-01T16:18:05.059Z,25.8
2017-06-01T16:20:04.742Z,25.8
2017-06-01T16:22:05.900Z,25.7
2017-06-01T16:24:04.797Z,25.8
2017-06-01T16:26:05.533Z,25.8
2017-06-01T16:28:05.302Z,25.7
2017-06-01T16:30:05.626Z,25.7
2017-06-01T16:32:07.886Z,25.7
2017-06-01T16:34:05.331Z,25.7
2017-06-01T16:36:05.966Z,25.7
2017-06-01T16:38:05.555Z,25.6
2017-06-01T16:40:04.822Z,25.6
2017-06-01T16:42:05.538Z,25.6
2017-06-01T16:44:05.453Z,25.5
2017-06-01T16:46:07.848Z,25.5
2017-06-01T16:48:05.541Z,25.5
2017-06-01T16:50:05.286Z,25.4
2017-06-01T16:52:05.539Z,25.4
2017-06-01T16:54:04.927Z,25.4
2017-06-01T16:56:05.146Z,25.4
2017-06-01T16:58:05.269Z,25.3
2017-06-01T17:00:05.167Z,25.3
2017-06-01T17:02:05.044Z,25.3
2017-06-01T17:04:04.841Z,25.3
2017-06-01T17:06:05.628Z,25.3
2017-06-01T17:08:05.671Z,25.3
2017-06-01T17:10:10.201Z,25.4
2017-06-01T17:12:05.103Z,25.3
2017-06-01T17:14:07.347Z,25.4
2017-06-01T17:16:07.528Z,25.4
2017-06-01T17:18:05.383Z,25.3
2017-06-01T17:20:05.495Z,25.4
2017-06-01T17:22:05.767Z,25.4
2017-06-01T17:24:10.995Z,25.4
2017-06-01T17:26:05.171Z,25.4
2017-06-01T17:28:05.065Z,25.4
2017-06-01T17:30:05.662Z,25.3
2017-06-01T17:32:05.092Z,25.4
2017-06-01T17:34:05.584Z,25.3
2017-06-01T17:36:07.913Z,25.4
2017-06-01T17:38:12.305Z,25.4
2017-06-01T17:40:04.838Z,25.4
2017-06-01T17:42:05.326Z,25.5
2017-06-01T17:44:06.055Z,25.4
2017-06-01T17:46:17.359Z,25.3
2017-06-01T17:48:05.269Z,25.3
2017-06-01T17:50:09.901Z,25.3
2017-06-01T17:52:07.299Z,25.4
2017-06-01T17:54:05.075Z,25.3
2017-06-01T17:56:05.151Z,25.3
2017-06-01T17:58:11.968Z,25.3
2017-06-01T18:00:24.533Z,25.3
2017-06-01T18:02:06.357Z,25.3
2017-06-01T18:04:07.336Z,25.3
2017-06-01T18:06:13.183Z,25.3
2017-06-01T18:08:07.163Z,25.3
2017-06-01T18:10:04.975Z,25.3
2017-06-01T18:12:09.720Z,25.3
2017-06-01T18:14:05.355Z,25.3
2017-06-01T18:16:05.416Z,25.3
2017-06-01T18:18:06.540Z,25.3
2017-06-01T18:20:04.772Z,25.3
2017-06-01T18:22:05.274Z,25.3
2017-06-01T18:24:05.402Z,25.3
2017-06-01T18:26:05.455Z,25.3
2017-06-01T18:28:05.681Z,25.3
2017-06-01T18:30:11.911Z,25.3
2017-06-01T18:32:08.159Z,25.3
2017-06-01T18:34:19.683Z,25.2
2017-06-01T18:36:06.712Z,25.3
2017-06-01T18:38:08.092Z,25.3
2017-06-01T18:40:05.001Z,25.2
2017-06-01T18:42:06.677Z,25.3
2017-06-01T18:44:07.410Z,25.3
2017-06-01T18:46:14.728Z,25.2
2017-06-01T18:48:05.511Z,25.2
2017-06-01T18:50:04.928Z,25.2
2017-06-01T18:52:05.238Z,25.3
2017-06-01T18:54:04.956Z,25.3
2017-06-01T18:56:04.881Z,25.3
2017-06-01T18:58:06.188Z,25.2
2017-06-01T19:00:07.734Z,25.3
2017-06-01T19:02:04.915Z,25.3
2017-06-01T19:04:05.969Z,25.3
2017-06-01T19:06:06.837Z,25.3
2017-06-01T19:08:05.777Z,25.2
2017-06-01T19:10:05.728Z,25.2
2017-06-01T19:12:08.446Z,25.2
2017-06-01T19:14:06.292Z,25.1
2017-06-01T19:16:10.093Z,25.1
2017-06-01T19:18:05.383Z,25.1
2017-06-01T19:20:08.280Z,25.1
2017-06-01T19:22:06.603Z,25.2
2017-06-01T19:24:04.683Z,25.2
2017-06-01T19:26:05.407Z,25.1
2017-06-01T19:28:05.815Z,25.1
2017-06-01T19:30:05.586Z,25.1
2017-06-01T19:32:05.073Z,25.1
2017-06-01T19:34:06.068Z,25.1
2017-06-01T19:36:07.822Z,25.1
2017-06-01T19:38:05.543Z,25.1
2017-06-01T19:40:05.346Z,25.1
2017-06-01T19:42:05.739Z,25.1
2017-06-01T19:44:05.477Z,25.1
2017-06-01T19:46:05.238Z,25.1
2017-06-01T19:48:04.970Z,25.1
2017-06-01T19:50:07.163Z,25
2017-06-01T19:52:07.432Z,25
2017-06-01T19:54:07.744Z,25
2017-06-01T19:56:05.491Z,25
2017-06-01T19:58:10.354Z,25
2017-06-01T20:00:04.652Z,25
2017-06-01T20:02:07.878Z,25
2017-06-01T20:04:06.043Z,25
2017-06-01T20:06:05.324Z,25
2017-06-01T20:08:12.620Z,24.9
2017-06-01T20:10:08.247Z,25
2017-06-01T20:12:05.064Z,25
2017-06-01T20:14:09.791Z,25
2017-06-01T20:16:07.908Z,25
2017-06-01T20:18:07.319Z,25
2017-06-01T20:20:05.096Z,24.9
2017-06-01T20:22:07.462Z,24.9
2017-06-01T20:24:05.390Z,24.9
2017-06-01T20:26:05.125Z,24.9
2017-06-01T20:28:04.889Z,24.9
2017-06-01T20:30:05.613Z,24.9
2017-06-01T20:32:05.347Z,24.9
2017-06-01T20:34:10.192Z,24.8
2017-06-01T20:36:12.522Z,24.8
2017-06-01T20:38:05.326Z,24.8
2017-06-01T20:40:05.180Z,24.8
2017-06-01T20:42:08.041Z,24.8
2017-06-01T20:44:04.738Z,24.8
2017-06-01T20:46:05.667Z,24.8
2017-06-01T20:48:05.014Z,24.7
2017-06-01T20:50:07.472Z,24.7
2017-06-01T20:52:08.136Z,24.7
2017-06-01T20:54:05.063Z,24.7
2017-06-01T20:56:09.870Z,24.7
2017-06-01T20:58:05.628Z,24.7
2017-06-01T21:00:05.601Z,24.7
2017-06-01T21:02:05.368Z,24.7
2017-06-01T21:04:05.152Z,24.7
2017-06-01T21:06:07.377Z,24.7
2017-06-01T21:08:05.064Z,24.7
2017-06-01T21:10:04.888Z,24.7
2017-06-01T21:12:05.789Z,24.6
2017-06-01T21:14:05.595Z,24.6
2017-06-01T21:16:05.096Z,24.6
2017-06-01T21:18:05.023Z,24.6
2017-06-01T21:20:04.751Z,24.5
2017-06-01T21:22:05.493Z,24.6
2017-06-01T21:24:05.254Z,24.5
2017-06-01T21:26:07.685Z,24.5
2017-06-01T21:28:13.335Z,24.5
2017-06-01T21:30:05.029Z,24.5
2017-06-01T21:32:07.294Z,24.5
2017-06-01T21:34:05.186Z,24.4
2017-06-01T21:36:04.889Z,24.4
2017-06-01T21:38:10.665Z,24.4
2017-06-01T21:40:05.448Z,24.4
2017-06-01T21:42:05.481Z,24.4
2017-06-01T21:44:04.734Z,24.4
2017-06-01T21:46:06.340Z,24.4
2017-06-01T21:48:04.961Z,24.4
2017-06-01T21:50:07.932Z,24.3
2017-06-01T21:52:05.767Z,24.3
2017-06-01T21:54:05.477Z,24.3
2017-06-01T21:56:05.408Z,24.3
2017-06-01T21:58:10.587Z,24.3
2017-06-01T22:00:05.273Z,24.3
2017-06-01T22:02:05.051Z,24.3
2017-06-01T22:04:07.431Z,24.3
2017-06-01T22:06:10.408Z,24.2
2017-06-01T22:08:05.084Z,24.2
2017-06-01T22:10:05.241Z,24.2
2017-06-01T22:12:10.017Z,24.2
2017-06-01T22:14:07.512Z,24.2
2017-06-01T22:16:08.088Z,24.2
2017-06-01T22:18:07.949Z,24.2
2017-06-01T22:20:04.585Z,24.2
2017-06-01T22:22:08.117Z,24.2
2017-06-01T22:24:04.795Z,24.2
2017-06-01T22:26:05.586Z,24.1
2017-06-01T22:28:05.331Z,24.1
2017-06-01T22:30:05.483Z,24.1
2017-06-01T22:32:07.246Z,24
2017-06-01T22:34:05.097Z,24
2017-06-01T22:36:04.807Z,24
2017-06-01T22:38:05.519Z,24
2017-06-01T22:40:05.450Z,24
2017-06-01T22:42:04.905Z,24
2017-06-01T22:44:04.631Z,24
2017-06-01T22:46:10.936Z,23.9
2017-06-01T22:48:04.674Z,23.9
2017-06-01T22:50:05.337Z,23.9
2017-06-01T22:52:05.192Z,23.9
2017-06-01T22:54:04.823Z,23.8
2017-06-01T22:56:10.650Z,23.8
2017-06-01T22:58:05.702Z,23.8
2017-06-01T23:00:13.099Z,23.7
2017-06-01T23:02:07.531Z,23.7
2017-06-01T23:04:05.410Z,23.8
2017-06-01T23:06:04.693Z,23.7
2017-06-01T23:08:06.783Z,23.8
2017-06-01T23:10:05.215Z,23.7
2017-06-01T23:12:04.942Z,23.7
2017-06-01T23:14:05.147Z,23.7
2017-06-01T23:16:04.863Z,23.7
2017-06-01T23:18:07.533Z,23.7
2017-06-01T23:20:05.322Z,23.7
2017-06-01T23:22:05.035Z,23.7
2017-06-01T23:24:04.829Z,23.6
2017-06-01T23:26:13.068Z,23.6
2017-06-01T23:28:05.725Z,23.5
2017-06-01T23:30:07.939Z,23.6
2017-06-01T23:32:04.708Z,23.6
2017-06-01T23:34:08.322Z,23.6
2017-06-01T23:36:05.052Z,23.6
2017-06-01T23:38:04.739Z,23.6
2017-06-01T23:40:04.746Z,23.6
2017-06-01T23:42:04.974Z,23.5
2017-06-01T23:44:14.782Z,23.5
2017-06-01T23:46:05.499Z,23.5
2017-06-01T23:48:05.285Z,23.5
2017-06-01T23:50:07.676Z,23.5
2017-06-01T23:52:08.229Z,23.5
2017-06-01T23:54:10.155Z,23.4
2017-06-01T23:56:04.964Z,23.4
2017-06-01T23:58:04.823Z,23.4
